createdAt,value
2019-04-04T00:02:08.717Z,90.58
2019-04-04T00:05:12.606Z,90.01
2019-04-04T00:08:16.457Z,90.52
2019-04-04T00:11:20.296Z,90.57
2019-04-04T00:14:24.091Z,89.83
2019-04-04T00:17:27.885Z,90.41
2019-04-04T00:20:32.316Z,90.26
2019-04-04T00:23:38.038Z,88.87
2019-04-04T00:26:42.628Z,88.87
2019-04-04T00:29:47.992Z,87.55
2019-04-04T00:32:52.786Z,85.94
2019-04-04T00:35:57.253Z,86.06
2019-04-04T00:39:01.084Z,86.22
2019-04-04T00:42:04.972Z,86.93
2019-04-04T00:45:08.929Z,87.57
2019-04-04T00:48:12.779Z,88.15
2019-04-04T00:51:16.602Z,88.05
2019-04-04T00:54:20.424Z,88.81
2019-04-04T00:57:24.252Z,88.10
2019-04-04T01:00:28.116Z,88.94
2019-04-04T01:03:31.927Z,89.82
2019-04-04T01:06:35.755Z,90.02
2019-04-04T01:09:39.607Z,90.43
2019-04-04T01:12:43.441Z,90.54
2019-04-04T01:15:47.323Z,90.61
2019-04-04T01:18:51.132Z,89.45
2019-04-04T01:21:54.944Z,89.82
2019-04-04T01:24:59.024Z,90.35
2019-04-04T01:28:04.390Z,91.08
2019-04-04T01:31:08.223Z,90.94
2019-04-04T01:34:12.033Z,91.14
2019-04-04T01:37:15.894Z,91.23
2019-04-04T01:40:19.880Z,91.10
2019-04-04T01:43:23.690Z,90.34
2019-04-04T01:46:27.488Z,90.47
2019-04-04T01:49:31.290Z,90.93
2019-04-04T01:52:35.109Z,91.28
2019-04-04T01:55:38.919Z,91.41
2019-04-04T01:58:42.712Z,91.59
2019-04-04T02:01:46.840Z,91.57
2019-04-04T02:04:51.301Z,91.74
2019-04-04T02:07:55.107Z,91.93
2019-04-04T02:10:58.909Z,92.03
2019-04-04T02:14:02.733Z,91.66
2019-04-04T02:17:06.606Z,91.70
2019-04-04T02:20:10.573Z,91.43
2019-04-04T02:23:14.385Z,91.56
2019-04-04T02:26:18.185Z,90.87
2019-04-04T02:29:22.025Z,90.55
2019-04-04T02:32:27.519Z,90.65
2019-04-04T02:35:31.487Z,91.24
2019-04-04T02:38:35.269Z,91.89
2019-04-04T02:41:39.082Z,92.48
2019-04-04T02:44:42.961Z,92.71
2019-04-04T02:47:50.313Z,93.00
2019-04-04T02:50:52.280Z,92.88
2019-04-04T02:53:56.085Z,92.99
2019-04-04T02:56:59.935Z,92.94
2019-04-04T03:00:04.413Z,92.81
2019-04-04T03:03:09.325Z,92.08
2019-04-04T03:06:13.465Z,91.64
2019-04-04T03:09:17.337Z,90.75
2019-04-04T03:12:21.326Z,91.64
2019-04-04T03:15:25.223Z,92.56
2019-04-04T03:18:29.096Z,92.55
2019-04-04T03:21:32.963Z,91.77
2019-04-04T03:24:40.282Z,90.53
2019-04-04T03:27:42.373Z,91.26
2019-04-04T03:30:52.426Z,92.28
2019-04-04T03:33:51.803Z,92.12
2019-04-04T03:36:55.678Z,92.58
2019-04-04T03:39:59.529Z,93.04
2019-04-04T03:43:03.317Z,93.20
2019-04-04T03:46:07.143Z,93.31
2019-04-04T03:49:10.915Z,93.65
2019-04-04T03:52:14.734Z,93.96
2019-04-04T03:55:18.588Z,93.98
2019-04-04T03:58:27.043Z,94.20
2019-04-04T04:01:27.988Z,94.28
2019-04-04T04:04:31.826Z,94.07
2019-04-04T04:07:35.626Z,93.92
2019-04-04T04:10:39.416Z,93.93
2019-04-04T04:13:43.220Z,94.06
2019-04-04T04:16:47.028Z,94.05
2019-04-04T04:19:50.833Z,93.59
2019-04-04T04:22:54.701Z,94.01
2019-04-04T04:25:58.568Z,94.13
2019-04-04T04:29:02.485Z,94.32
2019-04-04T04:32:06.386Z,94.44
2019-04-04T04:35:10.429Z,94.49
2019-04-04T04:38:14.211Z,94.60
2019-04-04T04:41:20.423Z,94.54
2019-04-04T04:44:23.581Z,94.12
2019-04-04T04:47:27.457Z,94.35
2019-04-04T04:50:31.243Z,94.39
2019-04-04T04:53:35.063Z,94.59
2019-04-04T04:56:38.869Z,94.17
2019-04-04T04:59:44.299Z,95.68
2019-04-04T05:02:48.529Z,95.60
2019-04-04T05:05:52.409Z,95.64
2019-04-04T05:08:56.226Z,95.28
2019-04-04T05:12:00.124Z,95.38
2019-04-04T05:15:04.269Z,95.48
2019-04-04T05:18:08.064Z,95.65
2019-04-04T05:21:24.134Z,95.48
2019-04-04T05:24:18.105Z,95.57
2019-04-04T05:27:22.617Z,95.83
2019-04-04T05:30:26.433Z,95.72
2019-04-04T05:33:31.667Z,95.81
2019-04-04T05:36:36.784Z,95.99
2019-04-04T05:39:40.927Z,95.98
2019-04-04T05:42:45.698Z,96.07
2019-04-04T05:45:49.474Z,96.09
2019-04-04T05:48:53.364Z,96.15
2019-04-04T05:51:57.165Z,96.23
2019-04-04T05:55:00.997Z,96.33
2019-04-04T05:58:04.883Z,96.30
2019-04-04T06:01:10.254Z,96.43
2019-04-04T06:04:14.355Z,97.20
2019-04-04T06:07:18.224Z,97.19
2019-04-04T06:10:22.005Z,97.72
2019-04-04T06:13:27.049Z,98.22
2019-04-04T06:16:33.050Z,98.58
2019-04-04T06:19:36.920Z,97.82
2019-04-04T06:22:40.708Z,97.58
2019-04-04T06:25:44.549Z,97.27
2019-04-04T06:28:48.437Z,96.60
2019-04-04T06:31:52.273Z,96.85
2019-04-04T06:34:56.779Z,97.11
2019-04-04T06:38:00.723Z,97.23
2019-04-04T06:41:04.653Z,97.24
2019-04-04T06:44:08.528Z,97.75
2019-04-04T06:47:12.344Z,97.91
2019-04-04T06:50:16.328Z,97.93
2019-04-04T06:53:20.389Z,98.03
2019-04-04T06:56:25.644Z,97.89
2019-04-04T06:59:29.530Z,97.14
2019-04-04T07:02:33.364Z,97.53
2019-04-04T07:05:38.831Z,97.12
2019-04-04T07:08:42.916Z,96.89
2019-04-04T07:11:46.811Z,98.19
2019-04-04T07:14:50.720Z,97.57
2019-04-04T07:17:54.545Z,97.94
2019-04-04T07:20:58.403Z,97.14
2019-04-04T07:24:02.237Z,96.05
2019-04-04T07:27:06.236Z,96.57
2019-04-04T07:30:10.491Z,95.53
2019-04-04T07:33:14.287Z,94.82
2019-04-04T07:36:20.180Z,95.72
2019-04-04T07:39:23.630Z,94.86
2019-04-04T07:42:27.531Z,94.79
2019-04-04T07:45:31.429Z,94.53
2019-04-04T07:48:35.382Z,94.21
2019-04-04T07:51:39.164Z,93.21
2019-04-04T07:54:42.962Z,92.71
2019-04-04T07:57:46.767Z,93.07
2019-04-04T08:00:50.559Z,93.20
2019-04-04T08:03:54.403Z,93.46
2019-04-04T08:06:58.213Z,92.27
2019-04-04T08:10:02.014Z,91.84
2019-04-04T08:13:05.946Z,91.80
2019-04-04T08:16:09.822Z,90.64
2019-04-04T08:19:13.594Z,89.98
2019-04-04T08:22:17.482Z,90.25
2019-04-04T08:25:21.378Z,90.28
2019-04-04T08:28:25.200Z,90.20
2019-04-04T08:31:29.020Z,88.08
2019-04-04T08:34:32.921Z,89.01
2019-04-04T08:37:36.735Z,88.58
2019-04-04T08:40:40.556Z,87.82
2019-04-04T08:43:44.341Z,87.41
2019-04-04T08:46:48.151Z,87.07
2019-04-04T08:49:51.953Z,87.05
2019-04-04T08:52:55.845Z,85.88
2019-04-04T08:55:59.713Z,84.27
2019-04-04T08:59:03.604Z,84.38
2019-04-04T09:02:07.538Z,84.35
2019-04-04T09:05:12.631Z,84.17
2019-04-04T09:08:16.620Z,84.31
2019-04-04T09:11:20.761Z,84.35
2019-04-04T09:14:24.735Z,85.62
2019-04-04T09:17:28.536Z,86.12
2019-04-04T09:20:32.383Z,86.16
2019-04-04T09:23:36.248Z,83.97
2019-04-04T09:26:40.127Z,84.85
2019-04-04T09:29:43.940Z,84.91
2019-04-04T09:32:47.752Z,84.33
2019-04-04T09:35:51.634Z,83.60
2019-04-04T09:38:55.436Z,83.67
2019-04-04T09:41:59.258Z,81.48
2019-04-04T09:45:03.156Z,81.96
2019-04-04T09:48:07.129Z,82.55
2019-04-04T09:51:11.009Z,82.19
2019-04-04T09:54:14.903Z,81.03
2019-04-04T09:57:18.711Z,79.66
2019-04-04T10:00:24.534Z,78.64
2019-04-04T10:03:28.425Z,78.41
2019-04-04T10:06:32.238Z,79.37
2019-04-04T10:09:36.063Z,78.78
2019-04-04T10:12:39.876Z,79.44
2019-04-04T10:15:44.125Z,78.48
2019-04-04T10:18:47.931Z,78.92
2019-04-04T10:21:51.753Z,80.15
2019-04-04T10:24:55.566Z,79.81
2019-04-04T10:27:59.364Z,80.37
2019-04-04T10:31:03.254Z,80.97
2019-04-04T10:34:07.224Z,79.01
2019-04-04T10:37:11.155Z,80.00
2019-04-04T10:40:15.688Z,79.27
2019-04-04T10:43:19.505Z,79.19
2019-04-04T10:46:23.377Z,79.74
2019-04-04T10:49:27.184Z,78.48
2019-04-04T10:52:30.995Z,79.05
2019-04-04T10:55:34.803Z,78.78
2019-04-04T10:58:38.690Z,79.31
2019-04-04T11:01:42.524Z,79.51
2019-04-04T11:04:46.355Z,79.85
2019-04-04T11:07:50.151Z,79.92
2019-04-04T11:10:53.976Z,79.90
2019-04-04T11:13:57.884Z,79.04
2019-04-04T11:17:01.695Z,78.90
2019-04-04T11:20:06.124Z,77.27
2019-04-04T11:23:09.995Z,78.72
2019-04-04T11:26:13.881Z,79.22
2019-04-04T11:29:17.761Z,78.51
2019-04-04T11:32:21.659Z,77.86
2019-04-04T11:35:25.481Z,77.59
2019-04-04T11:38:29.309Z,78.18
2019-04-04T11:41:33.129Z,78.80
2019-04-04T11:44:36.933Z,77.21
2019-04-04T11:47:40.728Z,76.17
2019-04-04T11:50:44.665Z,76.17
2019-04-04T11:53:48.478Z,75.94
2019-04-04T11:56:52.277Z,75.59
2019-04-04T11:59:56.167Z,77.36
2019-04-04T12:03:00.062Z,76.93
2019-04-04T12:06:04.001Z,77.66
2019-04-04T12:09:08.855Z,77.58
2019-04-04T12:12:12.672Z,77.26
2019-04-04T12:15:16.632Z,77.88
2019-04-04T12:18:20.501Z,75.92
2019-04-04T12:21:24.300Z,75.38
2019-04-04T12:24:28.084Z,76.23
2019-04-04T12:27:31.915Z,76.33
2019-04-04T12:30:35.876Z,75.24
2019-04-04T12:33:39.686Z,76.22
2019-04-04T12:36:43.502Z,76.56
2019-04-04T12:39:47.318Z,73.34
2019-04-04T12:42:51.220Z,73.46
2019-04-04T12:45:55.123Z,71.30
2019-04-04T12:48:58.928Z,72.01
2019-04-04T12:52:02.742Z,71.63
2019-04-04T12:55:07.604Z,73.38
2019-04-04T12:58:11.492Z,73.08
2019-04-04T13:01:15.309Z,72.57
2019-04-04T13:04:30.697Z,72.25
2019-04-04T13:07:24.838Z,72.91
2019-04-04T13:10:33.162Z,71.91
2019-04-04T13:13:34.311Z,72.22
2019-04-04T13:16:38.117Z,72.26
2019-04-04T13:19:42.042Z,71.93
2019-04-04T13:22:46.023Z,72.16
2019-04-04T13:25:49.831Z,72.92
2019-04-04T13:28:53.641Z,71.94
2019-04-04T13:31:57.478Z,72.04
2019-04-04T13:35:04.919Z,72.57
2019-04-04T13:38:06.915Z,71.36
2019-04-04T13:41:21.278Z,70.20
2019-04-04T13:44:16.269Z,70.25
2019-04-04T13:47:20.064Z,70.15
2019-04-04T13:50:23.869Z,70.73
2019-04-04T13:53:27.678Z,69.75
2019-04-04T13:56:31.501Z,69.33
2019-04-04T13:59:35.349Z,69.85
2019-04-04T14:02:39.215Z,69.82
2019-04-04T14:05:43.039Z,70.00
2019-04-04T14:08:46.853Z,68.58
2019-04-04T14:11:50.685Z,66.43
2019-04-04T14:14:54.475Z,66.92
2019-04-04T14:17:58.374Z,66.10
2019-04-04T14:21:04.300Z,64.89
2019-04-04T14:24:13.781Z,66.83
2019-04-04T14:27:13.560Z,66.06
2019-04-04T14:30:18.231Z,66.58
2019-04-04T14:33:22.077Z,66.82
2019-04-04T14:36:26.005Z,64.87
2019-04-04T14:39:29.844Z,64.79
2019-04-04T14:42:33.639Z,66.87
2019-04-04T14:45:37.465Z,67.31
2019-04-04T14:48:42.950Z,67.45
2019-04-04T14:51:46.891Z,64.77
2019-04-04T14:54:50.714Z,67.25
2019-04-04T14:57:54.694Z,67.37
2019-04-04T15:00:58.599Z,68.63
2019-04-04T15:04:02.418Z,68.33
2019-04-04T15:07:06.303Z,67.83
2019-04-04T15:10:10.314Z,65.53
2019-04-04T15:13:14.151Z,65.29
2019-04-04T15:16:18.727Z,65.65
2019-04-04T15:19:22.635Z,64.54
2019-04-04T15:22:26.484Z,64.95
2019-04-04T15:25:30.391Z,67.79
2019-04-04T15:28:34.267Z,67.83
2019-04-04T15:31:38.150Z,67.85
2019-04-04T15:34:41.954Z,67.22
2019-04-04T15:37:45.777Z,65.94
2019-04-04T15:40:49.567Z,65.56
2019-04-04T15:43:53.452Z,65.74
2019-04-04T15:46:57.300Z,64.66
2019-04-04T15:50:01.084Z,64.67
2019-04-04T15:53:04.995Z,65.82
2019-04-04T15:56:08.829Z,64.68
2019-04-04T15:59:12.650Z,64.76
2019-04-04T16:02:16.654Z,64.90
2019-04-04T16:05:20.480Z,64.35
2019-04-04T16:08:24.324Z,63.59
2019-04-04T16:11:28.619Z,62.94
2019-04-04T16:14:32.459Z,63.60
2019-04-04T16:17:36.281Z,64.51
2019-04-04T16:20:40.257Z,62.84
2019-04-04T16:23:44.075Z,62.88
2019-04-04T16:26:47.894Z,63.40
2019-04-04T16:29:51.718Z,63.28
2019-04-04T16:32:55.519Z,63.10
2019-04-04T16:35:59.316Z,64.54
2019-04-04T16:39:03.266Z,64.61
2019-04-04T16:42:07.085Z,65.88
2019-04-04T16:45:11.049Z,66.39
2019-04-04T16:48:14.921Z,67.00
2019-04-04T16:51:18.727Z,67.89
2019-04-04T16:54:22.533Z,68.12
2019-04-04T16:57:27.073Z,68.69
2019-04-04T17:00:31.064Z,67.86
2019-04-04T17:03:34.963Z,68.61
2019-04-04T17:06:38.784Z,69.04
2019-04-04T17:09:42.725Z,69.50
2019-04-04T17:12:46.624Z,69.96
2019-04-04T17:15:50.441Z,69.85
2019-04-04T17:18:54.250Z,70.50
2019-04-04T17:21:58.073Z,70.49
2019-04-04T17:25:01.898Z,70.82
2019-04-04T17:28:05.897Z,70.86
2019-04-04T17:31:10.288Z,71.10
2019-04-04T17:34:14.736Z,71.32
2019-04-04T17:37:18.918Z,71.26
2019-04-04T17:40:23.125Z,71.45
2019-04-04T17:43:27.528Z,71.21
2019-04-04T17:46:31.492Z,71.74
2019-04-04T17:49:35.372Z,71.14
2019-04-04T17:52:39.280Z,72.07
2019-04-04T17:55:43.073Z,72.37
2019-04-04T17:58:46.959Z,74.03
2019-04-04T18:01:50.769Z,73.37
2019-04-04T18:04:54.678Z,73.99
2019-04-04T18:07:58.603Z,74.91
2019-04-04T18:11:02.431Z,75.54
2019-04-04T18:14:06.539Z,75.84
2019-04-04T18:17:10.363Z,75.72
2019-04-04T18:20:14.965Z,75.59
2019-04-04T18:23:18.868Z,75.69
2019-04-04T18:26:22.751Z,76.11
2019-04-04T18:29:26.602Z,76.24
2019-04-04T18:32:30.421Z,76.36
2019-04-04T18:35:34.690Z,76.46
2019-04-04T18:38:38.959Z,76.90
2019-04-04T18:41:42.986Z,76.91
2019-04-04T18:44:46.800Z,77.18
2019-04-04T18:47:50.753Z,77.70
2019-04-04T18:50:54.639Z,77.96
2019-04-04T18:53:58.465Z,77.59
2019-04-04T18:57:02.375Z,77.36
2019-04-04T19:00:08.225Z,78.02
2019-04-04T19:03:12.122Z,78.48
2019-04-04T19:06:16.036Z,78.34
2019-04-04T19:09:19.931Z,78.92
2019-04-04T19:12:23.747Z,79.53
2019-04-04T19:15:27.677Z,79.96
2019-04-04T19:18:31.556Z,80.09
2019-04-04T19:21:35.456Z,80.12
2019-04-04T19:24:39.354Z,80.32
2019-04-04T19:27:43.196Z,80.59
2019-04-04T19:30:47.185Z,80.65
2019-04-04T19:33:51.079Z,80.78
2019-04-04T19:36:55.000Z,80.68
2019-04-04T19:39:58.839Z,80.80
2019-04-04T19:43:02.755Z,80.75
2019-04-04T19:46:06.723Z,80.84
2019-04-04T19:49:10.594Z,81.00
2019-04-04T19:52:14.557Z,80.93
2019-04-04T19:55:18.552Z,81.49
2019-04-04T19:58:22.364Z,82.08
2019-04-04T20:01:26.174Z,82.11
2019-04-04T20:04:30.007Z,82.43
2019-04-04T20:07:33.813Z,82.83
2019-04-04T20:10:37.638Z,82.95
2019-04-04T20:13:41.451Z,83.18
2019-04-04T20:16:45.286Z,83.30
2019-04-04T20:19:49.186Z,83.39
2019-04-04T20:22:53.053Z,83.59
2019-04-04T20:25:56.861Z,83.33
2019-04-04T20:29:00.699Z,82.61
2019-04-04T20:32:04.607Z,83.20
2019-04-04T20:35:08.682Z,83.19
2019-04-04T20:38:12.500Z,83.24
2019-04-04T20:41:16.743Z,83.55
2019-04-04T20:44:20.724Z,84.22
2019-04-04T20:47:24.528Z,84.71
2019-04-04T20:50:28.441Z,85.20
2019-04-04T20:53:32.334Z,85.45
2019-04-04T20:56:36.243Z,85.61
2019-04-04T20:59:40.104Z,85.20
2019-04-04T21:02:44.059Z,83.87
2019-04-04T21:05:48.537Z,84.29
2019-04-04T21:08:52.722Z,84.94
2019-04-04T21:11:57.112Z,85.58
2019-04-04T21:15:01.124Z,85.91
2019-04-04T21:18:05.148Z,86.18
2019-04-04T21:21:09.185Z,86.29
2019-04-04T21:24:13.066Z,85.55
2019-04-04T21:27:18.817Z,86.27
2019-04-04T21:30:22.655Z,86.77
2019-04-04T21:33:26.609Z,87.03
2019-04-04T21:36:30.381Z,87.08
2019-04-04T21:39:34.191Z,87.18
2019-04-04T21:42:38.049Z,86.93
2019-04-04T21:45:41.939Z,86.49
2019-04-04T21:48:45.775Z,86.31
2019-04-04T21:51:49.603Z,86.65
2019-04-04T21:54:53.419Z,87.30
2019-04-04T21:57:57.280Z,87.31
2019-04-04T22:01:01.517Z,87.52
2019-04-04T22:04:05.881Z,87.64
2019-04-04T22:07:10.165Z,87.64
2019-04-04T22:10:14.402Z,87.79
2019-04-04T22:13:18.432Z,86.98
2019-04-04T22:16:22.551Z,86.61
2019-04-04T22:19:26.744Z,86.16
2019-04-04T22:22:30.650Z,85.56
2019-04-04T22:25:34.946Z,85.66
2019-04-04T22:28:38.804Z,85.54
2019-04-04T22:31:42.701Z,86.03
2019-04-04T22:34:46.818Z,86.41
2019-04-04T22:37:51.064Z,85.99
2019-04-04T22:40:55.086Z,85.53
2019-04-04T22:44:03.725Z,85.73
2019-04-04T22:47:04.987Z,85.71
2019-04-04T22:50:09.444Z,86.08
2019-04-04T22:53:13.763Z,86.33
2019-04-04T22:56:17.593Z,86.75
2019-04-04T22:59:21.666Z,86.68
2019-04-04T23:02:25.647Z,85.29
2019-04-04T23:05:29.880Z,86.15
2019-04-04T23:08:34.581Z,86.82
2019-04-04T23:11:38.492Z,86.89
2019-04-04T23:14:48.398Z,84.79
2019-04-04T23:17:47.895Z,85.37
2019-04-04T23:20:51.736Z,85.51
2019-04-04T23:23:55.554Z,86.77
2019-04-04T23:26:59.380Z,87.91
2019-04-04T23:30:03.284Z,88.43
2019-04-04T23:33:07.171Z,88.00
2019-04-04T23:36:11.028Z,88.35
2019-04-04T23:39:15.039Z,88.53
2019-04-04T23:42:18.883Z,88.71
2019-04-04T23:45:22.734Z,88.85
2019-04-04T23:48:26.555Z,88.55
2019-04-04T23:51:30.550Z,88.62
2019-04-04T23:54:34.440Z,87.64
2019-04-04T23:57:38.343Z,87.18
